Hauptseite
METAR-TAF:

METAR-TAF

Flughäfen :

Ushuaia, Argentinien

Flughafen Ushuaia

Breite: 54-48S, Länge: 068-19W, Höhe: 16 m

Beobachtung

Neuester Wetterbericht von vor 16 Minuten, um 15:00 UTC
Wind 3 kt aus Südwest
Temperatur 11°C
Luftfeuchtigkeit 82%
Luftdruck 1015 hPa
Sichtweite 10 km oder mehr
Aufgelockert bewölkt in der Höhe von 2500 ft
Durchbrochene Bewölkung in der Höhe von 3500 ft

METAR: SAWH 291500Z 23003KT 9999 SCT025 BKN035 11/08 Q1015

Zeit: 12:16 (15:16 UTC)

Prognose

Neuester Wetterbericht von vor 4 Stunden und 16 Minuten, um 11:00 UTC
Gültige Prognose vom 29 um 12 UTC bis 30 um 12 UTC
Wind 10 kt aus Südwest
Sichtweite 10 km oder mehr
Leicht bewölkt in der Höhe von 3000 ft
Aufgelockert bewölkt in der Höhe von 10000 ft

TAF: SAWH 291100Z 2912/3012 23010KT 9999 FEW030 SCT100 TX14/2919Z TN03/3010Z

Wetterbeobachtungen und Prognosen von mehr als 4000 Flughäfen (METAR und TAF Bericht).

Die verfügbaren Stationen werden durch gelbe und rote Markierungen auf der Karte dargestellt.

Führen Sie die Maus auf sie, um den Namen der Station zu sehen.

Darauf klicken, um die Beobachtung von Wetterbeobachtungen und Prognosen zu sehen.

Um die Karte zu ändern : klicken Sie auf den grünen Tasten mit einem schwarzen Kreuz Zum Vergrößern, auf den grünen Button mit einem Gedankenstrich zu verkleinern, oder auf die grünen Pfeile für benachbarte Karten.


METAR-TAF: